sensor_id;sensor_type;location;lat;lon;timestamp;P1;durP1;ratioP1;P2;durP2;ratioP2
6614;SDS011;3343;42.896;23.912;2023-05-14T00:01:51;4.43;;;3.27;;
6614;SDS011;3343;42.896;23.912;2023-05-14T00:04:19;4.47;;;3.10;;
6614;SDS011;3343;42.896;23.912;2023-05-14T00:06:46;4.17;;;3.03;;
6614;SDS011;3343;42.896;23.912;2023-05-14T00:09:12;3.57;;;2.60;;
6614;SDS011;3343;42.896;23.912;2023-05-14T00:11:39;3.90;;;2.70;;
6614;SDS011;3343;42.896;23.912;2023-05-14T00:14:06;4.30;;;2.80;;
6614;SDS011;3343;42.896;23.912;2023-05-14T00:16:33;5.80;;;2.70;;
6614;SDS011;3343;42.896;23.912;2023-05-14T00:19:00;7.03;;;2.70;;
6614;SDS011;3343;42.896;23.912;2023-05-14T00:21:28;3.77;;;2.80;;
6614;SDS011;3343;42.896;23.912;2023-05-14T00:23:55;4.93;;;2.70;;
6614;SDS011;3343;42.896;23.912;2023-05-14T00:26:22;3.03;;;2.50;;
6614;SDS011;3343;42.896;23.912;2023-05-14T00:28:49;3.90;;;2.87;;
6614;SDS011;3343;42.896;23.912;2023-05-14T00:31:16;3.17;;;2.43;;
6614;SDS011;3343;42.896;23.912;2023-05-14T00:33:43;3.03;;;2.70;;
6614;SDS011;3343;42.896;23.912;2023-05-14T00:36:10;3.70;;;2.83;;
6614;SDS011;3343;42.896;23.912;2023-05-14T00:38:38;4.17;;;3.10;;
6614;SDS011;3343;42.896;23.912;2023-05-14T00:41:04;3.30;;;2.63;;
6614;SDS011;3343;42.896;23.912;2023-05-14T00:43:31;2.87;;;2.23;;
6614;SDS011;3343;42.896;23.912;2023-05-14T00:45:58;4.20;;;2.83;;
6614;SDS011;3343;42.896;23.912;2023-05-14T00:48:26;4.23;;;2.97;;
6614;SDS011;3343;42.896;23.912;2023-05-14T00:50:53;3.47;;;2.70;;
6614;SDS011;3343;42.896;23.912;2023-05-14T00:53:20;2.63;;;2.37;;
6614;SDS011;3343;42.896;23.912;2023-05-14T00:55:48;3.83;;;2.90;;
6614;SDS011;3343;42.896;23.912;2023-05-14T00:58:16;3.83;;;2.63;;
6614;SDS011;3343;42.896;23.912;2023-05-14T01:00:43;3.00;;;2.50;;
6614;SDS011;3343;42.896;23.912;2023-05-14T01:03:10;3.80;;;2.53;;
6614;SDS011;3343;42.896;23.912;2023-05-14T01:05:39;3.00;;;2.57;;
6614;SDS011;3343;42.896;23.912;2023-05-14T01:08:13;4.13;;;2.80;;
6614;SDS011;3343;42.896;23.912;2023-05-14T01:10:50;5.03;;;3.23;;
6614;SDS011;3343;42.896;23.912;2023-05-14T01:13:22;3.63;;;2.70;;
6614;SDS011;3343;42.896;23.912;2023-05-14T01:15:53;3.70;;;2.67;;
6614;SDS011;3343;42.896;23.912;2023-05-14T01:18:22;5.57;;;2.67;;
6614;SDS011;3343;42.896;23.912;2023-05-14T01:20:50;4.37;;;2.83;;
6614;SDS011;3343;42.896;23.912;2023-05-14T01:23:18;4.70;;;2.80;;
6614;SDS011;3343;42.896;23.912;2023-05-14T01:25:45;2.80;;;2.23;;
6614;SDS011;3343;42.896;23.912;2023-05-14T01:28:13;5.17;;;2.70;;
6614;SDS011;3343;42.896;23.912;2023-05-14T01:30:44;4.60;;;3.00;;
6614;SDS011;3343;42.896;23.912;2023-05-14T01:33:15;4.03;;;3.00;;
6614;SDS011;3343;42.896;23.912;2023-05-14T01:35:44;4.37;;;2.90;;
6614;SDS011;3343;42.896;23.912;2023-05-14T01:38:13;5.60;;;2.60;;
6614;SDS011;3343;42.896;23.912;2023-05-14T01:40:44;3.27;;;2.67;;
6614;SDS011;3343;42.896;23.912;2023-05-14T01:43:12;3.57;;;2.90;;
6614;SDS011;3343;42.896;23.912;2023-05-14T01:45:41;3.50;;;2.63;;
6614;SDS011;3343;42.896;23.912;2023-05-14T01:48:09;4.13;;;2.80;;
6614;SDS011;3343;42.896;23.912;2023-05-14T01:50:36;3.83;;;2.83;;
6614;SDS011;3343;42.896;23.912;2023-05-14T01:53:02;3.80;;;3.30;;
6614;SDS011;3343;42.896;23.912;2023-05-14T01:55:29;4.77;;;2.50;;
6614;SDS011;3343;42.896;23.912;2023-05-14T01:57:58;5.40;;;2.77;;
6614;SDS011;3343;42.896;23.912;2023-05-14T02:00:25;3.43;;;2.90;;
6614;SDS011;3343;42.896;23.912;2023-05-14T02:02:52;3.23;;;2.60;;
6614;SDS011;3343;42.896;23.912;2023-05-14T02:05:19;5.80;;;2.60;;
6614;SDS011;3343;42.896;23.912;2023-05-14T02:07:46;4.10;;;2.40;;
6614;SDS011;3343;42.896;23.912;2023-05-14T02:10:13;4.23;;;2.90;;
6614;SDS011;3343;42.896;23.912;2023-05-14T02:12:40;5.77;;;3.13;;
6614;SDS011;3343;42.896;23.912;2023-05-14T02:15:09;3.97;;;3.10;;
6614;SDS011;3343;42.896;23.912;2023-05-14T02:17:36;3.70;;;2.73;;
6614;SDS011;3343;42.896;23.912;2023-05-14T02:20:03;2.83;;;2.60;;
6614;SDS011;3343;42.896;23.912;2023-05-14T02:22:30;2.47;;;2.27;;
6614;SDS011;3343;42.896;23.912;2023-05-14T02:24:57;3.17;;;2.37;;
6614;SDS011;3343;42.896;23.912;2023-05-14T02:27:24;3.10;;;2.50;;
6614;SDS011;3343;42.896;23.912;2023-05-14T02:29:51;3.43;;;2.40;;
6614;SDS011;3343;42.896;23.912;2023-05-14T02:32:19;5.30;;;3.17;;
6614;SDS011;3343;42.896;23.912;2023-05-14T02:34:47;4.53;;;2.60;;
6614;SDS011;3343;42.896;23.912;2023-05-14T02:37:14;3.00;;;2.37;;
6614;SDS011;3343;42.896;23.912;2023-05-14T02:39:41;3.90;;;2.87;;
6614;SDS011;3343;42.896;23.912;2023-05-14T02:42:08;5.43;;;2.70;;
6614;SDS011;3343;42.896;23.912;2023-05-14T02:44:35;4.53;;;3.00;;
6614;SDS011;3343;42.896;23.912;2023-05-14T02:47:02;3.97;;;3.27;;
6614;SDS011;3343;42.896;23.912;2023-05-14T02:49:30;4.00;;;3.10;;
6614;SDS011;3343;42.896;23.912;2023-05-14T02:51:57;7.37;;;3.37;;
6614;SDS011;3343;42.896;23.912;2023-05-14T02:54:25;3.57;;;2.90;;
6614;SDS011;3343;42.896;23.912;2023-05-14T02:56:52;4.00;;;2.83;;
6614;SDS011;3343;42.896;23.912;2023-05-14T02:59:20;4.33;;;3.47;;
6614;SDS011;3343;42.896;23.912;2023-05-14T03:01:47;4.17;;;2.50;;
6614;SDS011;3343;42.896;23.912;2023-05-14T03:04:14;4.43;;;2.50;;
6614;SDS011;3343;42.896;23.912;2023-05-14T03:06:42;3.50;;;2.87;;
6614;SDS011;3343;42.896;23.912;2023-05-14T03:09:09;4.27;;;3.20;;
6614;SDS011;3343;42.896;23.912;2023-05-14T03:11:36;4.90;;;2.80;;
6614;SDS011;3343;42.896;23.912;2023-05-14T03:14:03;3.33;;;2.40;;
6614;SDS011;3343;42.896;23.912;2023-05-14T03:16:30;3.47;;;2.30;;
6614;SDS011;3343;42.896;23.912;2023-05-14T03:18:56;3.27;;;2.70;;
6614;SDS011;3343;42.896;23.912;2023-05-14T03:21:23;2.90;;;2.23;;
6614;SDS011;3343;42.896;23.912;2023-05-14T03:23:52;3.70;;;2.50;;
6614;SDS011;3343;42.896;23.912;2023-05-14T03:26:19;6.80;;;2.80;;
6614;SDS011;3343;42.896;23.912;2023-05-14T03:28:46;4.73;;;2.83;;
6614;SDS011;3343;42.896;23.912;2023-05-14T03:31:13;6.03;;;2.97;;
6614;SDS011;3343;42.896;23.912;2023-05-14T03:33:40;8.30;;;2.83;;
6614;SDS011;3343;42.896;23.912;2023-05-14T03:36:07;3.73;;;3.07;;
6614;SDS011;3343;42.896;23.912;2023-05-14T03:38:34;3.30;;;2.90;;
6614;SDS011;3343;42.896;23.912;2023-05-14T03:41:02;3.87;;;3.13;;
6614;SDS011;3343;42.896;23.912;2023-05-14T03:43:29;4.00;;;3.10;;
6614;SDS011;3343;42.896;23.912;2023-05-14T03:45:56;3.50;;;2.70;;
6614;SDS011;3343;42.896;23.912;2023-05-14T03:48:23;4.57;;;3.20;;
6614;SDS011;3343;42.896;23.912;2023-05-14T03:50:49;3.93;;;2.60;;
6614;SDS011;3343;42.896;23.912;2023-05-14T03:53:16;3.30;;;2.77;;
6614;SDS011;3343;42.896;23.912;2023-05-14T03:55:43;2.50;;;2.30;;
6614;SDS011;3343;42.896;23.912;2023-05-14T03:58:11;3.67;;;2.67;;
6614;SDS011;3343;42.896;23.912;2023-05-14T04:00:39;5.07;;;2.70;;
6614;SDS011;3343;42.896;23.912;2023-05-14T04:03:06;4.47;;;2.67;;
6614;SDS011;3343;42.896;23.912;2023-05-14T04:05:33;4.80;;;2.60;;
6614;SDS011;3343;42.896;23.912;2023-05-14T04:08:01;3.77;;;2.60;;
6614;SDS011;3343;42.896;23.912;2023-05-14T04:10:28;6.13;;;3.07;;
6614;SDS011;3343;42.896;23.912;2023-05-14T04:12:55;4.43;;;2.80;;
6614;SDS011;3343;42.896;23.912;2023-05-14T04:15:23;3.33;;;2.80;;
6614;SDS011;3343;42.896;23.912;2023-05-14T04:17:50;4.97;;;3.23;;
6614;SDS011;3343;42.896;23.912;2023-05-14T04:20:17;4.20;;;3.00;;
6614;SDS011;3343;42.896;23.912;2023-05-14T04:22:44;4.27;;;3.30;;
6614;SDS011;3343;42.896;23.912;2023-05-14T04:25:11;5.00;;;3.33;;
6614;SDS011;3343;42.896;23.912;2023-05-14T04:27:38;4.27;;;3.13;;
6614;SDS011;3343;42.896;23.912;2023-05-14T04:30:05;5.13;;;3.10;;
6614;SDS011;3343;42.896;23.912;2023-05-14T04:32:34;10.57;;;3.20;;
6614;SDS011;3343;42.896;23.912;2023-05-14T04:35:02;3.73;;;3.00;;
6614;SDS011;3343;42.896;23.912;2023-05-14T04:37:29;5.57;;;3.23;;
6614;SDS011;3343;42.896;23.912;2023-05-14T04:39:57;4.93;;;3.40;;
6614;SDS011;3343;42.896;23.912;2023-05-14T04:42:24;4.60;;;3.30;;
6614;SDS011;3343;42.896;23.912;2023-05-14T04:44:50;6.57;;;3.70;;
6614;SDS011;3343;42.896;23.912;2023-05-14T04:47:17;5.30;;;3.37;;
6614;SDS011;3343;42.896;23.912;2023-05-14T04:49:46;9.07;;;3.40;;
6614;SDS011;3343;42.896;23.912;2023-05-14T04:52:13;3.77;;;2.80;;
6614;SDS011;3343;42.896;23.912;2023-05-14T04:54:40;4.30;;;3.27;;
6614;SDS011;3343;42.896;23.912;2023-05-14T04:57:07;4.03;;;3.40;;
6614;SDS011;3343;42.896;23.912;2023-05-14T04:59:34;4.10;;;3.17;;
6614;SDS011;3343;42.896;23.912;2023-05-14T05:02:01;4.43;;;3.47;;
6614;SDS011;3343;42.896;23.912;2023-05-14T05:04:28;5.47;;;3.27;;
6614;SDS011;3343;42.896;23.912;2023-05-14T05:06:56;4.63;;;3.57;;
6614;SDS011;3343;42.896;23.912;2023-05-14T05:09:24;8.37;;;3.33;;
6614;SDS011;3343;42.896;23.912;2023-05-14T05:11:51;4.13;;;3.20;;
6614;SDS011;3343;42.896;23.912;2023-05-14T05:14:17;3.97;;;3.50;;
6614;SDS011;3343;42.896;23.912;2023-05-14T05:16:45;4.53;;;3.17;;
6614;SDS011;3343;42.896;23.912;2023-05-14T05:19:12;3.40;;;2.83;;
6614;SDS011;3343;42.896;23.912;2023-05-14T05:21:39;4.90;;;3.27;;
6614;SDS011;3343;42.896;23.912;2023-05-14T05:24:07;5.77;;;3.17;;
6614;SDS011;3343;42.896;23.912;2023-05-14T05:26:34;4.47;;;3.10;;
6614;SDS011;3343;42.896;23.912;2023-05-14T05:29:01;4.13;;;2.73;;
6614;SDS011;3343;42.896;23.912;2023-05-14T05:31:29;3.57;;;2.93;;
6614;SDS011;3343;42.896;23.912;2023-05-14T05:33:56;3.33;;;2.93;;
6614;SDS011;3343;42.896;23.912;2023-05-14T05:36:24;3.40;;;3.10;;
6614;SDS011;3343;42.896;23.912;2023-05-14T05:38:50;3.50;;;3.20;;
6614;SDS011;3343;42.896;23.912;2023-05-14T05:41:19;3.13;;;2.83;;
6614;SDS011;3343;42.896;23.912;2023-05-14T05:43:46;5.03;;;3.20;;
6614;SDS011;3343;42.896;23.912;2023-05-14T05:46:13;5.93;;;3.33;;
6614;SDS011;3343;42.896;23.912;2023-05-14T05:48:40;6.27;;;3.60;;
6614;SDS011;3343;42.896;23.912;2023-05-14T05:51:06;6.77;;;3.57;;
6614;SDS011;3343;42.896;23.912;2023-05-14T05:53:33;9.47;;;3.73;;
6614;SDS011;3343;42.896;23.912;2023-05-14T05:56:00;5.10;;;3.23;;
6614;SDS011;3343;42.896;23.912;2023-05-14T05:58:29;6.50;;;3.30;;
6614;SDS011;3343;42.896;23.912;2023-05-14T06:00:56;4.93;;;3.23;;
6614;SDS011;3343;42.896;23.912;2023-05-14T06:03:23;3.43;;;3.13;;
6614;SDS011;3343;42.896;23.912;2023-05-14T06:05:51;3.70;;;3.00;;
6614;SDS011;3343;42.896;23.912;2023-05-14T06:08:18;4.23;;;3.07;;
6614;SDS011;3343;42.896;23.912;2023-05-14T06:10:45;4.17;;;2.73;;
6614;SDS011;3343;42.896;23.912;2023-05-14T06:13:11;3.63;;;2.60;;
6614;SDS011;3343;42.896;23.912;2023-05-14T06:15:40;3.93;;;3.00;;
6614;SDS011;3343;42.896;23.912;2023-05-14T06:18:06;4.17;;;3.03;;
6614;SDS011;3343;42.896;23.912;2023-05-14T06:20:33;4.73;;;3.43;;
6614;SDS011;3343;42.896;23.912;2023-05-14T06:23:00;3.77;;;2.90;;
6614;SDS011;3343;42.896;23.912;2023-05-14T06:25:27;3.30;;;3.00;;
6614;SDS011;3343;42.896;23.912;2023-05-14T06:27:54;4.87;;;3.43;;
6614;SDS011;3343;42.896;23.912;2023-05-14T06:30:21;3.27;;;2.80;;
6614;SDS011;3343;42.896;23.912;2023-05-14T06:32:49;4.67;;;3.07;;
6614;SDS011;3343;42.896;23.912;2023-05-14T06:35:16;4.40;;;3.00;;
6614;SDS011;3343;42.896;23.912;2023-05-14T06:44:03;4.47;;;3.60;;
6614;SDS011;3343;42.896;23.912;2023-05-14T06:46:30;3.93;;;2.50;;
6614;SDS011;3343;42.896;23.912;2023-05-14T06:48:59;7.27;;;3.20;;
6614;SDS011;3343;42.896;23.912;2023-05-14T06:51:25;4.23;;;3.47;;
6614;SDS011;3343;42.896;23.912;2023-05-14T06:53:53;5.97;;;3.40;;
6614;SDS011;3343;42.896;23.912;2023-05-14T06:56:20;6.47;;;3.70;;
6614;SDS011;3343;42.896;23.912;2023-05-14T06:58:47;6.00;;;3.33;;
6614;SDS011;3343;42.896;23.912;2023-05-14T07:01:15;5.70;;;4.03;;
6614;SDS011;3343;42.896;23.912;2023-05-14T07:03:41;5.43;;;3.90;;
6614;SDS011;3343;42.896;23.912;2023-05-14T07:06:10;4.63;;;3.57;;
6614;SDS011;3343;42.896;23.912;2023-05-14T07:08:37;6.13;;;3.50;;
6614;SDS011;3343;42.896;23.912;2023-05-14T07:11:04;9.00;;;3.07;;
6614;SDS011;3343;42.896;23.912;2023-05-14T07:13:31;6.60;;;3.40;;
6614;SDS011;3343;42.896;23.912;2023-05-14T07:15:58;4.53;;;3.43;;
6614;SDS011;3343;42.896;23.912;2023-05-14T07:18:25;4.57;;;3.00;;
6614;SDS011;3343;42.896;23.912;2023-05-14T07:20:51;4.23;;;3.10;;
6614;SDS011;3343;42.896;23.912;2023-05-14T07:23:20;7.33;;;3.00;;
6614;SDS011;3343;42.896;23.912;2023-05-14T07:25:46;5.23;;;3.53;;
6614;SDS011;3343;42.896;23.912;2023-05-14T07:28:13;4.47;;;3.00;;
6614;SDS011;3343;42.896;23.912;2023-05-14T07:30:40;4.93;;;3.00;;
6614;SDS011;3343;42.896;23.912;2023-05-14T07:33:07;4.33;;;3.30;;
6614;SDS011;3343;42.896;23.912;2023-05-14T07:35:34;4.63;;;3.37;;
6614;SDS011;3343;42.896;23.912;2023-05-14T07:38:01;6.73;;;3.73;;
6614;SDS011;3343;42.896;23.912;2023-05-14T07:40:31;5.37;;;4.00;;
6614;SDS011;3343;42.896;23.912;2023-05-14T07:42:58;5.40;;;3.33;;
6614;SDS011;3343;42.896;23.912;2023-05-14T07:45:25;10.97;;;3.40;;
6614;SDS011;3343;42.896;23.912;2023-05-14T07:47:52;5.27;;;3.67;;
6614;SDS011;3343;42.896;23.912;2023-05-14T07:50:18;4.63;;;3.37;;
6614;SDS011;3343;42.896;23.912;2023-05-14T07:52:46;5.10;;;3.37;;
6614;SDS011;3343;42.896;23.912;2023-05-14T07:55:12;4.17;;;3.23;;
6614;SDS011;3343;42.896;23.912;2023-05-14T07:57:41;4.47;;;3.00;;
6614;SDS011;3343;42.896;23.912;2023-05-14T08:00:08;5.13;;;3.23;;
6614;SDS011;3343;42.896;23.912;2023-05-14T08:02:35;6.37;;;3.33;;
6614;SDS011;3343;42.896;23.912;2023-05-14T08:05:02;6.57;;;3.50;;
6614;SDS011;3343;42.896;23.912;2023-05-14T08:07:29;5.97;;;3.40;;
6614;SDS011;3343;42.896;23.912;2023-05-14T08:09:56;7.90;;;3.70;;
6614;SDS011;3343;42.896;23.912;2023-05-14T08:12:23;6.17;;;4.30;;
6614;SDS011;3343;42.896;23.912;2023-05-14T08:14:52;8.27;;;4.50;;
6614;SDS011;3343;42.896;23.912;2023-05-14T08:17:19;7.00;;;4.23;;
6614;SDS011;3343;42.896;23.912;2023-05-14T08:19:45;6.73;;;4.13;;
6614;SDS011;3343;42.896;23.912;2023-05-14T08:22:13;4.53;;;3.67;;
6614;SDS011;3343;42.896;23.912;2023-05-14T08:24:40;9.03;;;5.00;;
6614;SDS011;3343;42.896;23.912;2023-05-14T08:27:07;4.70;;;4.10;;
6614;SDS011;3343;42.896;23.912;2023-05-14T08:29:34;7.57;;;4.10;;
6614;SDS011;3343;42.896;23.912;2023-05-14T08:32:04;4.57;;;3.70;;
6614;SDS011;3343;42.896;23.912;2023-05-14T08:34:31;4.80;;;3.60;;
6614;SDS011;3343;42.896;23.912;2023-05-14T08:36:57;7.67;;;4.47;;
6614;SDS011;3343;42.896;23.912;2023-05-14T08:39:24;5.17;;;4.23;;
6614;SDS011;3343;42.896;23.912;2023-05-14T08:41:51;6.43;;;4.30;;
6614;SDS011;3343;42.896;23.912;2023-05-14T08:44:19;7.17;;;4.17;;
6614;SDS011;3343;42.896;23.912;2023-05-14T08:46:51;6.60;;;4.63;;
6614;SDS011;3343;42.896;23.912;2023-05-14T08:49:24;5.37;;;4.40;;
6614;SDS011;3343;42.896;23.912;2023-05-14T08:51:58;6.03;;;4.50;;
6614;SDS011;3343;42.896;23.912;2023-05-14T08:54:26;7.77;;;4.00;;
6614;SDS011;3343;42.896;23.912;2023-05-14T08:56:54;6.10;;;4.13;;
6614;SDS011;3343;42.896;23.912;2023-05-14T08:59:21;5.00;;;4.43;;
6614;SDS011;3343;42.896;23.912;2023-05-14T09:01:50;5.27;;;4.20;;
6614;SDS011;3343;42.896;23.912;2023-05-14T09:04:19;5.87;;;4.50;;
6614;SDS011;3343;42.896;23.912;2023-05-14T09:06:49;8.30;;;4.10;;
6614;SDS011;3343;42.896;23.912;2023-05-14T09:32:09;7.43;;;5.57;;
6614;SDS011;3343;42.896;23.912;2023-05-14T09:34:36;9.73;;;5.40;;
6614;SDS011;3343;42.896;23.912;2023-05-14T09:37:04;8.47;;;5.83;;
6614;SDS011;3343;42.896;23.912;2023-05-14T09:39:32;9.07;;;5.87;;
6614;SDS011;3343;42.896;23.912;2023-05-14T09:42:01;8.20;;;5.80;;
6614;SDS011;3343;42.896;23.912;2023-05-14T09:44:29;8.20;;;5.93;;
6614;SDS011;3343;42.896;23.912;2023-05-14T09:46:57;8.20;;;6.13;;
6614;SDS011;3343;42.896;23.912;2023-05-14T09:49:25;7.23;;;5.23;;
6614;SDS011;3343;42.896;23.912;2023-05-14T10:04:26;5.60;;;4.70;;
6614;SDS011;3343;42.896;23.912;2023-05-14T10:06:53;7.37;;;5.23;;
6614;SDS011;3343;42.896;23.912;2023-05-14T10:09:21;7.73;;;5.20;;
6614;SDS011;3343;42.896;23.912;2023-05-14T10:11:52;6.63;;;4.73;;
6614;SDS011;3343;42.896;23.912;2023-05-14T10:14:28;8.93;;;5.17;;
6614;SDS011;3343;42.896;23.912;2023-05-14T10:16:59;5.53;;;4.03;;
6614;SDS011;3343;42.896;23.912;2023-05-14T10:19:29;4.23;;;3.73;;
6614;SDS011;3343;42.896;23.912;2023-05-14T10:22:02;4.93;;;3.90;;
6614;SDS011;3343;42.896;23.912;2023-05-14T10:24:30;4.93;;;3.27;;
6614;SDS011;3343;42.896;23.912;2023-05-14T10:26:58;4.30;;;3.90;;
6614;SDS011;3343;42.896;23.912;2023-05-14T10:29:30;5.70;;;4.00;;
6614;SDS011;3343;42.896;23.912;2023-05-14T10:32:00;6.77;;;3.90;;
6614;SDS011;3343;42.896;23.912;2023-05-14T10:34:32;5.13;;;3.67;;
6614;SDS011;3343;42.896;23.912;2023-05-14T10:37:01;4.63;;;3.50;;
6614;SDS011;3343;42.896;23.912;2023-05-14T10:39:43;5.90;;;4.73;;
6614;SDS011;3343;42.896;23.912;2023-05-14T10:42:12;4.73;;;4.10;;
6614;SDS011;3343;42.896;23.912;2023-05-14T10:44:44;6.57;;;4.73;;
6614;SDS011;3343;42.896;23.912;2023-05-14T10:47:14;7.70;;;4.97;;
6614;SDS011;3343;42.896;23.912;2023-05-14T10:49:43;5.33;;;3.93;;
6614;SDS011;3343;42.896;23.912;2023-05-14T10:52:14;4.90;;;3.97;;
6614;SDS011;3343;42.896;23.912;2023-05-14T10:54:44;7.20;;;4.10;;
6614;SDS011;3343;42.896;23.912;2023-05-14T10:57:14;5.77;;;3.77;;
6614;SDS011;3343;42.896;23.912;2023-05-14T10:59:42;8.80;;;4.17;;
6614;SDS011;3343;42.896;23.912;2023-05-14T11:02:20;4.57;;;3.90;;
6614;SDS011;3343;42.896;23.912;2023-05-14T11:04:53;6.20;;;3.70;;
6614;SDS011;3343;42.896;23.912;2023-05-14T11:07:23;6.40;;;4.70;;
6614;SDS011;3343;42.896;23.912;2023-05-14T11:09:53;7.60;;;4.87;;
6614;SDS011;3343;42.896;23.912;2023-05-14T11:12:30;10.50;;;4.83;;
6614;SDS011;3343;42.896;23.912;2023-05-14T11:14:58;7.17;;;4.50;;
6614;SDS011;3343;42.896;23.912;2023-05-14T11:17:26;11.00;;;4.53;;
6614;SDS011;3343;42.896;23.912;2023-05-14T11:19:56;4.97;;;4.33;;
6614;SDS011;3343;42.896;23.912;2023-05-14T11:22:23;5.17;;;4.00;;
6614;SDS011;3343;42.896;23.912;2023-05-14T11:24:50;7.33;;;4.43;;
6614;SDS011;3343;42.896;23.912;2023-05-14T11:27:17;5.90;;;3.53;;
6614;SDS011;3343;42.896;23.912;2023-05-14T11:29:46;5.73;;;4.27;;
6614;SDS011;3343;42.896;23.912;2023-05-14T11:32:14;7.93;;;4.10;;
6614;SDS011;3343;42.896;23.912;2023-05-14T11:34:42;5.03;;;4.20;;
6614;SDS011;3343;42.896;23.912;2023-05-14T11:37:11;7.03;;;4.30;;
6614;SDS011;3343;42.896;23.912;2023-05-14T11:39:45;4.37;;;3.97;;
6614;SDS011;3343;42.896;23.912;2023-05-14T11:42:13;5.33;;;3.80;;
6614;SDS011;3343;42.896;23.912;2023-05-14T11:44:41;6.40;;;4.27;;
6614;SDS011;3343;42.896;23.912;2023-05-14T11:47:10;6.60;;;4.17;;
6614;SDS011;3343;42.896;23.912;2023-05-14T11:49:37;5.80;;;4.30;;
6614;SDS011;3343;42.896;23.912;2023-05-14T11:52:04;5.23;;;4.00;;
6614;SDS011;3343;42.896;23.912;2023-05-14T11:54:33;8.77;;;4.40;;
6614;SDS011;3343;42.896;23.912;2023-05-14T11:57:02;8.13;;;5.57;;
6614;SDS011;3343;42.896;23.912;2023-05-14T11:59:33;7.27;;;5.10;;
6614;SDS011;3343;42.896;23.912;2023-05-14T12:02:00;7.93;;;4.90;;
6614;SDS011;3343;42.896;23.912;2023-05-14T12:04:28;4.43;;;3.77;;
6614;SDS011;3343;42.896;23.912;2023-05-14T12:06:56;6.23;;;4.93;;
6614;SDS011;3343;42.896;23.912;2023-05-14T12:09:24;6.50;;;4.87;;
6614;SDS011;3343;42.896;23.912;2023-05-14T12:11:52;8.13;;;4.60;;
6614;SDS011;3343;42.896;23.912;2023-05-14T12:14:20;5.37;;;4.17;;
6614;SDS011;3343;42.896;23.912;2023-05-14T12:16:48;5.23;;;4.03;;
6614;SDS011;3343;42.896;23.912;2023-05-14T12:19:16;5.10;;;4.00;;
6614;SDS011;3343;42.896;23.912;2023-05-14T12:21:45;5.47;;;4.43;;
6614;SDS011;3343;42.896;23.912;2023-05-14T12:24:16;6.67;;;4.80;;
6614;SDS011;3343;42.896;23.912;2023-05-14T12:26:44;5.73;;;4.00;;
6614;SDS011;3343;42.896;23.912;2023-05-14T12:29:13;5.23;;;4.17;;
6614;SDS011;3343;42.896;23.912;2023-05-14T12:31:43;5.23;;;4.13;;
6614;SDS011;3343;42.896;23.912;2023-05-14T12:34:12;9.07;;;5.10;;
6614;SDS011;3343;42.896;23.912;2023-05-14T12:36:38;5.63;;;4.40;;
6614;SDS011;3343;42.896;23.912;2023-05-14T12:39:05;6.50;;;5.37;;
6614;SDS011;3343;42.896;23.912;2023-05-14T12:41:32;10.50;;;5.53;;
6614;SDS011;3343;42.896;23.912;2023-05-14T12:44:01;7.97;;;5.80;;
6614;SDS011;3343;42.896;23.912;2023-05-14T12:46:30;7.70;;;5.13;;
6614;SDS011;3343;42.896;23.912;2023-05-14T12:48:58;6.87;;;5.47;;
6614;SDS011;3343;42.896;23.912;2023-05-14T12:51:25;6.63;;;4.73;;
6614;SDS011;3343;42.896;23.912;2023-05-14T12:53:52;6.60;;;4.63;;
6614;SDS011;3343;42.896;23.912;2023-05-14T12:56:19;7.97;;;5.73;;
6614;SDS011;3343;42.896;23.912;2023-05-14T12:58:52;7.63;;;4.80;;
6614;SDS011;3343;42.896;23.912;2023-05-14T13:01:20;8.87;;;5.90;;
6614;SDS011;3343;42.896;23.912;2023-05-14T13:03:48;6.90;;;5.23;;
6614;SDS011;3343;42.896;23.912;2023-05-14T13:06:15;6.57;;;4.80;;
6614;SDS011;3343;42.896;23.912;2023-05-14T13:08:42;7.57;;;5.43;;
6614;SDS011;3343;42.896;23.912;2023-05-14T13:11:09;7.10;;;5.50;;
6614;SDS011;3343;42.896;23.912;2023-05-14T13:13:36;6.53;;;5.23;;
6614;SDS011;3343;42.896;23.912;2023-05-14T13:16:03;6.43;;;4.60;;
6614;SDS011;3343;42.896;23.912;2023-05-14T13:18:30;7.23;;;5.40;;
6614;SDS011;3343;42.896;23.912;2023-05-14T13:20:58;8.27;;;4.63;;
6614;SDS011;3343;42.896;23.912;2023-05-14T13:23:28;9.33;;;5.53;;
6614;SDS011;3343;42.896;23.912;2023-05-14T13:25:55;5.87;;;5.03;;
6614;SDS011;3343;42.896;23.912;2023-05-14T13:28:22;7.07;;;5.13;;
6614;SDS011;3343;42.896;23.912;2023-05-14T13:31:02;5.73;;;4.83;;
6614;SDS011;3343;42.896;23.912;2023-05-14T13:33:31;5.57;;;4.80;;
6614;SDS011;3343;42.896;23.912;2023-05-14T13:36:00;6.10;;;5.13;;
6614;SDS011;3343;42.896;23.912;2023-05-14T13:38:27;6.17;;;4.03;;
6614;SDS011;3343;42.896;23.912;2023-05-14T13:40:53;6.97;;;4.47;;
6614;SDS011;3343;42.896;23.912;2023-05-14T13:43:26;7.60;;;5.60;;
6614;SDS011;3343;42.896;23.912;2023-05-14T13:45:53;7.57;;;5.70;;
6614;SDS011;3343;42.896;23.912;2023-05-14T13:48:20;6.47;;;5.37;;
6614;SDS011;3343;42.896;23.912;2023-05-14T13:50:47;6.47;;;4.93;;
6614;SDS011;3343;42.896;23.912;2023-05-14T13:53:15;9.50;;;4.83;;
6614;SDS011;3343;42.896;23.912;2023-05-14T13:55:42;6.17;;;4.60;;
6614;SDS011;3343;42.896;23.912;2023-05-14T13:58:09;5.20;;;4.17;;
6614;SDS011;3343;42.896;23.912;2023-05-14T14:00:36;4.20;;;3.30;;
6614;SDS011;3343;42.896;23.912;2023-05-14T14:03:03;4.37;;;3.23;;
6614;SDS011;3343;42.896;23.912;2023-05-14T14:05:30;4.57;;;3.43;;
6614;SDS011;3343;42.896;23.912;2023-05-14T14:07:57;5.30;;;3.93;;
6614;SDS011;3343;42.896;23.912;2023-05-14T14:10:25;4.53;;;3.80;;
6614;SDS011;3343;42.896;23.912;2023-05-14T14:12:52;4.87;;;3.67;;
6614;SDS011;3343;42.896;23.912;2023-05-14T14:15:19;4.53;;;3.93;;
6614;SDS011;3343;42.896;23.912;2023-05-14T14:17:46;6.00;;;4.43;;
6614;SDS011;3343;42.896;23.912;2023-05-14T14:20:13;6.87;;;4.30;;
6614;SDS011;3343;42.896;23.912;2023-05-14T14:22:41;5.63;;;3.57;;
6614;SDS011;3343;42.896;23.912;2023-05-14T14:25:09;5.00;;;3.77;;
6614;SDS011;3343;42.896;23.912;2023-05-14T14:27:38;5.93;;;3.60;;
6614;SDS011;3343;42.896;23.912;2023-05-14T14:30:07;6.00;;;3.80;;
6614;SDS011;3343;42.896;23.912;2023-05-14T14:32:40;5.30;;;3.83;;
6614;SDS011;3343;42.896;23.912;2023-05-14T14:35:09;6.40;;;5.00;;
6614;SDS011;3343;42.896;23.912;2023-05-14T14:37:36;7.63;;;5.67;;
6614;SDS011;3343;42.896;23.912;2023-05-14T14:40:03;9.67;;;6.20;;
6614;SDS011;3343;42.896;23.912;2023-05-14T14:42:32;12.50;;;7.43;;
6614;SDS011;3343;42.896;23.912;2023-05-14T14:45:00;10.23;;;7.20;;
6614;SDS011;3343;42.896;23.912;2023-05-14T14:47:27;16.37;;;10.60;;
6614;SDS011;3343;42.896;23.912;2023-05-14T14:49:54;11.73;;;7.23;;
6614;SDS011;3343;42.896;23.912;2023-05-14T14:52:21;7.57;;;5.47;;
6614;SDS011;3343;42.896;23.912;2023-05-14T14:54:49;8.67;;;6.17;;
6614;SDS011;3343;42.896;23.912;2023-05-14T14:57:16;8.47;;;5.83;;
6614;SDS011;3343;42.896;23.912;2023-05-14T14:59:43;9.23;;;6.10;;
6614;SDS011;3343;42.896;23.912;2023-05-14T15:02:12;5.83;;;4.77;;
6614;SDS011;3343;42.896;23.912;2023-05-14T15:04:39;4.73;;;3.70;;
6614;SDS011;3343;42.896;23.912;2023-05-14T15:07:06;5.30;;;4.10;;
6614;SDS011;3343;42.896;23.912;2023-05-14T15:09:33;12.93;;;9.47;;
6614;SDS011;3343;42.896;23.912;2023-05-14T15:12:00;5.77;;;4.77;;
6614;SDS011;3343;42.896;23.912;2023-05-14T15:14:26;13.43;;;6.43;;
6614;SDS011;3343;42.896;23.912;2023-05-14T15:16:53;5.63;;;4.23;;
6614;SDS011;3343;42.896;23.912;2023-05-14T15:19:21;5.10;;;3.70;;
6614;SDS011;3343;42.896;23.912;2023-05-14T15:21:48;4.53;;;3.77;;
6614;SDS011;3343;42.896;23.912;2023-05-14T15:24:16;5.93;;;4.23;;
6614;SDS011;3343;42.896;23.912;2023-05-14T15:26:43;5.37;;;4.60;;
6614;SDS011;3343;42.896;23.912;2023-05-14T15:29:10;4.20;;;3.70;;
6614;SDS011;3343;42.896;23.912;2023-05-14T15:31:36;5.63;;;4.03;;
6614;SDS011;3343;42.896;23.912;2023-05-14T15:34:03;5.30;;;4.33;;
6614;SDS011;3343;42.896;23.912;2023-05-14T15:36:32;6.57;;;5.03;;
6614;SDS011;3343;42.896;23.912;2023-05-14T15:38:58;4.87;;;4.20;;
6614;SDS011;3343;42.896;23.912;2023-05-14T15:41:25;5.37;;;4.40;;
6614;SDS011;3343;42.896;23.912;2023-05-14T15:43:52;5.03;;;4.23;;
6614;SDS011;3343;42.896;23.912;2023-05-14T15:46:20;5.27;;;4.07;;